createdAt,value
2018-07-30T00:00:19.924Z,24.18
2018-07-30T00:02:47.911Z,24.31
2018-07-30T00:05:15.959Z,24.36
2018-07-30T00:07:43.949Z,24.43
2018-07-30T00:10:11.956Z,24.32
2018-07-30T00:12:39.964Z,24.34
2018-07-30T00:15:07.993Z,24.29
2018-07-30T00:17:36.013Z,24.29
2018-07-30T00:20:04.088Z,24.23
2018-07-30T00:22:32.122Z,24.26
2018-07-30T00:25:00.303Z,24.18
2018-07-30T00:27:28.316Z,24.24
2018-07-30T00:29:56.424Z,24.11
2018-07-30T00:32:24.424Z,24.17
2018-07-30T00:34:52.424Z,24.31
2018-07-30T00:37:20.477Z,24.37
2018-07-30T00:39:48.510Z,24.38
2018-07-30T00:42:16.560Z,24.27
2018-07-30T00:44:44.647Z,24.29
2018-07-30T00:47:12.893Z,24.37
2018-07-30T00:49:40.967Z,24.32
2018-07-30T00:52:09.066Z,24.29
2018-07-30T00:54:37.064Z,24.33
2018-07-30T00:57:05.348Z,24.43
2018-07-30T00:59:33.369Z,24.51
2018-07-30T01:02:01.381Z,24.41
2018-07-30T01:04:29.473Z,24.47
2018-07-30T01:06:57.532Z,24.38
2018-07-30T01:09:25.569Z,24.18
2018-07-30T01:11:57.675Z,24.27
2018-07-30T01:14:26.302Z,24.22
2018-07-30T01:16:54.340Z,24.11
2018-07-30T01:19:22.373Z,24.03
2018-07-30T01:21:50.411Z,24.09
2018-07-30T01:24:18.428Z,24.13
2018-07-30T01:26:46.437Z,24.15
2018-07-30T01:29:14.436Z,24.23
2018-07-30T01:31:42.425Z,24.29
2018-07-30T01:34:10.488Z,24.32
2018-07-30T01:36:38.573Z,24.23
2018-07-30T01:39:07.763Z,24.33
2018-07-30T01:41:35.792Z,24.32
2018-07-30T01:44:04.040Z,24.34
2018-07-30T01:46:32.063Z,24.39
2018-07-30T01:49:00.142Z,24.55
2018-07-30T01:51:28.204Z,24.66
2018-07-30T01:53:56.201Z,24.73
2018-07-30T01:56:24.188Z,24.76
2018-07-30T01:58:52.184Z,24.78
2018-07-30T02:01:20.190Z,24.80
2018-07-30T02:03:48.278Z,24.75
2018-07-30T02:06:16.277Z,24.61
2018-07-30T02:08:44.264Z,24.65
2018-07-30T02:11:12.296Z,24.68
2018-07-30T02:13:40.319Z,24.58
2018-07-30T02:16:08.358Z,24.45
2018-07-30T02:18:36.349Z,24.37
2018-07-30T02:21:04.372Z,24.35
2018-07-30T02:23:32.371Z,24.21
2018-07-30T02:26:00.429Z,24.26
2018-07-30T02:28:28.432Z,24.13
2018-07-30T02:30:56.461Z,24.04
2018-07-30T02:33:24.460Z,23.97
2018-07-30T02:35:52.472Z,24.08
2018-07-30T02:38:20.469Z,24.28
2018-07-30T02:40:48.504Z,24.32
2018-07-30T02:43:16.556Z,24.28
2018-07-30T02:45:44.555Z,24.09
2018-07-30T02:48:12.553Z,24.12
2018-07-30T02:50:40.813Z,24.09
2018-07-30T02:53:08.813Z,23.91
2018-07-30T02:55:36.845Z,23.78
2018-07-30T02:58:04.842Z,23.73
2018-07-30T03:00:32.841Z,23.62
2018-07-30T03:03:00.829Z,23.63
2018-07-30T03:05:28.837Z,23.60
2018-07-30T03:07:56.875Z,23.67
2018-07-30T03:10:24.914Z,23.78
2018-07-30T03:12:52.941Z,23.69
2018-07-30T03:15:21.070Z,23.75
2018-07-30T03:17:49.118Z,23.80
2018-07-30T03:20:17.140Z,23.95
2018-07-30T03:22:45.224Z,23.89
2018-07-30T03:25:13.226Z,23.85
2018-07-30T03:27:41.302Z,23.74
2018-07-30T03:30:10.301Z,23.84
2018-07-30T03:32:38.422Z,23.80
2018-07-30T03:35:07.245Z,23.88
2018-07-30T03:37:35.253Z,23.89
2018-07-30T03:40:03.603Z,23.91
2018-07-30T03:42:31.609Z,23.81
2018-07-30T03:44:59.619Z,23.82
2018-07-30T03:47:27.643Z,23.90
2018-07-30T03:49:55.636Z,23.84
2018-07-30T03:52:24.468Z,23.84
2018-07-30T03:54:52.452Z,23.85
2018-07-30T03:57:20.480Z,23.82
2018-07-30T03:59:48.538Z,23.85
2018-07-30T04:02:16.540Z,23.92
2018-07-30T04:04:44.616Z,24.06
2018-07-30T04:07:12.693Z,23.94
2018-07-30T04:09:40.698Z,24.06
2018-07-30T04:12:08.703Z,23.97
2018-07-30T04:14:36.801Z,23.95
2018-07-30T04:17:04.796Z,23.86
2018-07-30T04:19:32.804Z,24.00
2018-07-30T04:22:00.847Z,24.10
2018-07-30T04:24:28.830Z,24.18
2018-07-30T04:26:56.893Z,24.19
2018-07-30T04:29:24.990Z,24.08
2018-07-30T04:31:53.024Z,24.30
2018-07-30T04:34:21.037Z,24.48
2018-07-30T04:36:49.039Z,24.31
2018-07-30T04:39:17.033Z,24.49
2018-07-30T04:41:45.185Z,24.44
2018-07-30T04:44:13.347Z,24.53
2018-07-30T04:46:41.345Z,24.53
2018-07-30T04:49:10.459Z,24.53
2018-07-30T04:51:38.412Z,24.53
2018-07-30T04:54:06.661Z,24.61
2018-07-30T04:56:34.969Z,24.75
2018-07-30T04:59:02.973Z,24.81
2018-07-30T05:01:31.197Z,24.78
2018-07-30T05:03:59.200Z,24.86
2018-07-30T05:06:27.228Z,24.83
2018-07-30T05:08:55.260Z,25.00
2018-07-30T05:11:23.508Z,25.02
2018-07-30T05:13:51.516Z,25.18
2018-07-30T05:16:19.503Z,25.31
2018-07-30T05:18:47.559Z,25.39
2018-07-30T05:21:16.537Z,25.49
2018-07-30T05:23:44.552Z,25.44
2018-07-30T05:26:12.856Z,25.52
2018-07-30T05:28:40.881Z,25.64
2018-07-30T05:31:09.057Z,25.74
2018-07-30T05:33:37.068Z,25.60
2018-07-30T05:36:05.060Z,25.47
2018-07-30T05:38:33.089Z,25.27
2018-07-30T05:41:01.100Z,25.46
2018-07-30T05:43:29.100Z,25.69
2018-07-30T05:45:57.130Z,25.86
2018-07-30T05:48:25.116Z,25.96
2018-07-30T05:50:53.101Z,25.97
2018-07-30T05:53:21.142Z,25.81
2018-07-30T05:55:49.129Z,25.86
2018-07-30T05:58:17.157Z,25.95
2018-07-30T06:00:45.165Z,26.11
2018-07-30T06:03:13.195Z,26.05
2018-07-30T06:05:41.185Z,26.19
2018-07-30T06:08:09.197Z,26.07
2018-07-30T06:10:37.191Z,26.19
2018-07-30T06:13:05.208Z,26.33
2018-07-30T06:15:33.332Z,26.74
2018-07-30T06:18:01.336Z,26.99
2018-07-30T06:20:29.320Z,27.28
2018-07-30T06:22:57.311Z,27.38
2018-07-30T06:25:25.304Z,27.72
2018-07-30T06:27:53.300Z,27.88
2018-07-30T06:30:21.347Z,28.09
2018-07-30T06:32:49.320Z,28.19
2018-07-30T06:35:17.307Z,28.42
2018-07-30T06:37:45.315Z,28.45
2018-07-30T06:40:13.297Z,28.28
2018-07-30T06:42:41.285Z,28.34
2018-07-30T06:45:09.268Z,28.62
2018-07-30T06:47:37.317Z,28.70
2018-07-30T06:50:05.355Z,28.89
2018-07-30T06:52:33.380Z,28.95
2018-07-30T06:55:01.445Z,28.91
2018-07-30T06:57:29.461Z,29.14
2018-07-30T06:59:57.444Z,29.54
2018-07-30T07:02:25.448Z,29.82
2018-07-30T07:04:53.464Z,30.17
2018-07-30T07:07:21.447Z,30.55
2018-07-30T07:09:49.446Z,30.95
2018-07-30T07:12:17.466Z,31.03
2018-07-30T07:14:45.516Z,30.95
2018-07-30T07:17:13.514Z,31.23
2018-07-30T07:19:41.508Z,31.45
2018-07-30T07:22:09.506Z,31.59
2018-07-30T07:24:37.530Z,31.82
2018-07-30T07:27:05.648Z,32.25
2018-07-30T07:29:33.521Z,31.82
2018-07-30T07:32:01.500Z,32.18
2018-07-30T07:34:29.584Z,32.41
2018-07-30T07:36:57.576Z,33.09
2018-07-30T07:39:25.616Z,33.53
2018-07-30T07:41:53.621Z,33.96
2018-07-30T07:44:21.620Z,34.61
2018-07-30T07:46:49.597Z,35.41
2018-07-30T07:49:17.591Z,36.37
2018-07-30T07:51:45.577Z,36.78
2018-07-30T07:54:13.556Z,37.01
2018-07-30T07:56:41.788Z,37.48
2018-07-30T07:59:10.586Z,38.20
2018-07-30T08:01:38.812Z,38.09
2018-07-30T08:04:06.776Z,38.01
2018-07-30T08:06:34.780Z,37.84
2018-07-30T08:09:02.940Z,37.80
2018-07-30T08:11:30.993Z,37.95
2018-07-30T08:13:58.970Z,37.81
2018-07-30T08:16:27.174Z,37.89
2018-07-30T08:18:55.186Z,38.04
2018-07-30T08:21:23.266Z,38.25
2018-07-30T08:23:51.284Z,38.08
2018-07-30T08:26:19.300Z,37.80
2018-07-30T08:28:47.306Z,37.91
2018-07-30T08:31:15.294Z,37.88
2018-07-30T08:33:43.308Z,37.88
2018-07-30T08:36:11.302Z,38.37
2018-07-30T08:38:39.276Z,38.60
2018-07-30T08:41:07.291Z,38.93
2018-07-30T08:43:35.305Z,39.08
2018-07-30T08:46:03.285Z,38.88
2018-07-30T08:48:31.341Z,38.89
2018-07-30T08:50:59.336Z,39.18
2018-07-30T08:53:27.343Z,39.44
2018-07-30T08:55:55.307Z,39.18
2018-07-30T08:58:23.287Z,39.21
2018-07-30T09:00:51.283Z,38.85
2018-07-30T09:03:19.258Z,38.85
2018-07-30T09:05:47.236Z,38.88
2018-07-30T09:08:15.209Z,38.84
2018-07-30T09:10:43.205Z,38.83
2018-07-30T09:13:11.251Z,39.13
2018-07-30T09:15:39.223Z,39.30
2018-07-30T09:18:07.272Z,39.38
2018-07-30T09:20:35.200Z,39.39
2018-07-30T09:23:03.225Z,39.40
2018-07-30T09:25:31.295Z,39.20
2018-07-30T09:27:59.433Z,38.79
2018-07-30T09:30:27.440Z,38.63
2018-07-30T09:32:55.498Z,38.23
2018-07-30T09:35:23.496Z,37.51
2018-07-30T09:37:51.648Z,37.87
2018-07-30T09:40:19.701Z,37.91
2018-07-30T09:42:47.751Z,37.97
2018-07-30T09:45:15.931Z,38.06
2018-07-30T09:47:44.000Z,37.70
2018-07-30T09:50:12.027Z,36.63
2018-07-30T09:52:40.103Z,36.97
2018-07-30T09:55:08.208Z,36.86
2018-07-30T09:57:36.222Z,36.83
2018-07-30T10:00:05.034Z,36.68
2018-07-30T10:02:32.996Z,36.57
2018-07-30T10:05:00.976Z,36.54
2018-07-30T10:07:28.971Z,36.38
2018-07-30T10:09:57.062Z,36.51
2018-07-30T10:12:25.120Z,36.62
2018-07-30T10:14:53.139Z,36.99
2018-07-30T10:17:21.109Z,36.98
2018-07-30T10:19:49.092Z,37.27
2018-07-30T10:22:17.092Z,37.38
2018-07-30T10:24:45.297Z,37.16
2018-07-30T10:27:13.380Z,36.61
2018-07-30T10:29:41.409Z,36.58
2018-07-30T10:32:09.401Z,36.54
2018-07-30T10:34:37.462Z,36.49
2018-07-30T10:37:05.473Z,36.67
2018-07-30T10:39:33.460Z,36.45
2018-07-30T10:42:01.461Z,36.38
2018-07-30T10:44:29.472Z,36.40
2018-07-30T10:46:57.504Z,36.10
2018-07-30T10:49:25.540Z,36.21
2018-07-30T10:51:53.557Z,35.72
2018-07-30T10:54:21.564Z,35.89
2018-07-30T10:56:49.636Z,35.67
2018-07-30T10:59:17.670Z,35.92
2018-07-30T11:01:46.712Z,35.82
2018-07-30T11:04:14.713Z,35.95
2018-07-30T11:06:42.712Z,35.78
2018-07-30T11:09:13.802Z,35.60
2018-07-30T11:11:39.047Z,35.66
2018-07-30T11:14:07.149Z,35.84
2018-07-30T11:16:35.144Z,35.67
2018-07-30T11:19:03.557Z,35.69
2018-07-30T11:21:31.591Z,35.54
2018-07-30T11:23:59.597Z,35.93
2018-07-30T11:26:27.643Z,36.18
2018-07-30T11:28:55.636Z,36.29
2018-07-30T11:31:23.648Z,35.89
2018-07-30T11:33:52.657Z,36.16
2018-07-30T11:36:20.659Z,36.32
2018-07-30T11:38:48.645Z,36.61
2018-07-30T11:41:16.648Z,36.67
2018-07-30T11:43:44.728Z,37.02
2018-07-30T11:46:12.668Z,37.64
2018-07-30T11:48:40.710Z,37.75
2018-07-30T11:51:08.636Z,37.96
2018-07-30T11:53:36.662Z,38.50
2018-07-30T11:56:04.654Z,38.63
2018-07-30T11:58:32.628Z,38.28
2018-07-30T12:01:00.669Z,38.30
2018-07-30T12:03:28.676Z,38.02
2018-07-30T12:05:56.668Z,37.96
2018-07-30T12:08:24.648Z,38.03
2018-07-30T12:10:53.085Z,37.59
2018-07-30T12:13:21.092Z,37.67
2018-07-30T12:15:49.111Z,37.20
2018-07-30T12:18:17.101Z,36.96
2018-07-30T12:20:45.155Z,36.73
2018-07-30T12:23:13.148Z,36.80
2018-07-30T12:25:41.168Z,36.47
2018-07-30T12:28:09.157Z,35.98
2018-07-30T12:30:37.223Z,35.89
2018-07-30T12:33:05.166Z,35.78
2018-07-30T12:35:33.172Z,35.48
2018-07-30T12:38:01.165Z,35.03
2018-07-30T12:40:33.372Z,35.24
2018-07-30T12:43:01.806Z,35.41
2018-07-30T12:45:35.177Z,35.79
2018-07-30T12:48:03.151Z,36.30
2018-07-30T12:50:31.128Z,36.11
2018-07-30T12:52:59.130Z,36.41
2018-07-30T12:55:27.096Z,36.74
2018-07-30T12:57:55.193Z,36.92
2018-07-30T13:00:23.207Z,37.08
2018-07-30T13:02:51.261Z,37.08
2018-07-30T13:05:19.236Z,37.21
2018-07-30T13:07:47.306Z,37.10
2018-07-30T13:10:15.306Z,37.48
2018-07-30T13:12:43.360Z,37.42
2018-07-30T13:15:11.579Z,36.52
2018-07-30T13:17:39.664Z,36.37
2018-07-30T13:20:07.773Z,36.66
2018-07-30T13:22:35.828Z,36.94
2018-07-30T13:25:03.928Z,36.99
2018-07-30T13:27:33.032Z,36.73
2018-07-30T13:30:01.012Z,36.54
2018-07-30T13:32:29.037Z,36.44
2018-07-30T13:34:57.002Z,36.01
2018-07-30T13:37:25.006Z,35.94
2018-07-30T13:39:53.004Z,35.88
2018-07-30T13:42:21.014Z,35.88
2018-07-30T13:44:49.113Z,36.25
2018-07-30T13:47:17.146Z,36.45
2018-07-30T13:49:45.325Z,36.16
2018-07-30T13:52:13.482Z,36.35
2018-07-30T13:54:41.552Z,36.56
2018-07-30T13:57:09.638Z,36.42
2018-07-30T13:59:37.625Z,36.17
2018-07-30T14:02:05.608Z,35.91
2018-07-30T14:04:33.628Z,36.13
2018-07-30T14:07:01.790Z,36.25
2018-07-30T14:09:29.889Z,36.45
2018-07-30T14:11:57.951Z,36.47
2018-07-30T14:14:26.203Z,36.59
2018-07-30T14:16:54.212Z,36.49
2018-07-30T14:19:22.201Z,36.72
2018-07-30T14:21:50.281Z,36.93
2018-07-30T14:24:18.357Z,37.08
2018-07-30T14:26:46.466Z,37.19
2018-07-30T14:29:16.081Z,37.26
2018-07-30T14:31:47.936Z,37.08
2018-07-30T14:34:16.473Z,36.78
2018-07-30T14:36:44.495Z,37.01
2018-07-30T14:39:12.525Z,37.06
2018-07-30T14:41:40.761Z,37.25
2018-07-30T14:44:08.790Z,37.43
2018-07-30T14:46:36.831Z,37.51
2018-07-30T14:49:04.978Z,37.61
2018-07-30T14:51:33.005Z,37.29
2018-07-30T14:54:00.951Z,37.03
2018-07-30T14:56:28.987Z,36.84
2018-07-30T14:58:57.082Z,37.23
2018-07-30T15:01:25.100Z,37.54
2018-07-30T15:03:53.092Z,37.60
2018-07-30T15:06:21.196Z,37.79
2018-07-30T15:08:49.212Z,37.84
2018-07-30T15:11:17.225Z,37.77
2018-07-30T15:13:45.220Z,37.61
2018-07-30T15:16:13.245Z,37.55
2018-07-30T15:18:41.417Z,37.48
2018-07-30T15:21:09.447Z,37.19
2018-07-30T15:23:37.470Z,36.91
2018-07-30T15:26:05.492Z,36.42
2018-07-30T15:28:33.574Z,36.44
2018-07-30T15:31:01.545Z,36.70
2018-07-30T15:33:29.544Z,36.44
2018-07-30T15:35:57.559Z,36.72
2018-07-30T15:38:25.539Z,36.74
2018-07-30T15:40:53.628Z,37.00
2018-07-30T15:43:21.725Z,37.03
2018-07-30T15:45:49.775Z,36.78
2018-07-30T15:48:17.802Z,36.64
2018-07-30T15:50:45.772Z,36.43
2018-07-30T15:53:13.917Z,36.57
2018-07-30T15:55:42.051Z,36.64
2018-07-30T15:58:10.057Z,36.81
2018-07-30T16:00:38.087Z,36.83
2018-07-30T16:03:06.192Z,36.91
2018-07-30T16:05:34.335Z,37.36
2018-07-30T16:08:02.302Z,37.57
2018-07-30T16:10:30.305Z,37.86
2018-07-30T16:12:58.305Z,38.21
2018-07-30T16:15:26.369Z,38.38
2018-07-30T16:17:54.462Z,38.59
2018-07-30T16:20:22.365Z,38.40
2018-07-30T16:22:50.376Z,38.30
2018-07-30T16:25:18.380Z,37.51
2018-07-30T16:27:46.540Z,37.38
2018-07-30T16:30:15.595Z,37.08
2018-07-30T16:32:43.623Z,37.14
2018-07-30T16:35:11.661Z,36.91
2018-07-30T16:37:39.648Z,37.01
2018-07-30T16:40:07.924Z,36.75
2018-07-30T16:42:35.978Z,36.40
2018-07-30T16:45:04.537Z,36.15
2018-07-30T16:47:32.548Z,36.29
2018-07-30T16:50:00.558Z,36.28
2018-07-30T16:52:28.599Z,36.49
2018-07-30T16:54:56.590Z,36.42
2018-07-30T16:57:24.569Z,36.26
2018-07-30T16:59:52.540Z,36.14
2018-07-30T17:02:20.544Z,36.01
2018-07-30T17:04:48.528Z,36.15
2018-07-30T17:07:16.532Z,36.25
2018-07-30T17:09:44.625Z,36.14
2018-07-30T17:12:12.730Z,36.11
2018-07-30T17:14:40.771Z,35.88
2018-07-30T17:17:08.824Z,35.97
2018-07-30T17:19:36.824Z,35.96
2018-07-30T17:22:04.856Z,36.00
2018-07-30T17:24:32.861Z,35.94
2018-07-30T17:27:00.831Z,35.85
2018-07-30T17:29:28.819Z,35.93
2018-07-30T17:31:56.792Z,35.61
2018-07-30T17:34:25.921Z,35.86
2018-07-30T17:36:53.952Z,36.00
2018-07-30T17:39:22.061Z,35.98
2018-07-30T17:41:50.148Z,35.90
2018-07-30T17:44:18.114Z,36.09
2018-07-30T17:46:46.124Z,36.07
2018-07-30T17:49:14.581Z,35.89
2018-07-30T17:51:42.841Z,35.92
2018-07-30T17:54:10.885Z,35.62
2018-07-30T17:56:38.886Z,35.40
2018-07-30T17:59:06.973Z,35.54
2018-07-30T18:01:34.956Z,35.61
2018-07-30T18:04:02.956Z,35.57
2018-07-30T18:06:30.960Z,35.42
2018-07-30T18:08:59.082Z,35.19
2018-07-30T18:11:27.168Z,35.01
2018-07-30T18:13:55.194Z,34.85
2018-07-30T18:16:23.417Z,34.72
2018-07-30T18:18:51.429Z,34.60
2018-07-30T18:21:19.497Z,34.34
2018-07-30T18:23:47.546Z,34.36
2018-07-30T18:26:15.624Z,34.20
2018-07-30T18:28:43.644Z,34.35
2018-07-30T18:31:12.717Z,34.39
2018-07-30T18:33:41.015Z,34.23
2018-07-30T18:36:09.025Z,34.17
2018-07-30T18:38:37.004Z,34.05
2018-07-30T18:41:05.009Z,34.02
2018-07-30T18:43:33.006Z,33.77
2018-07-30T18:46:00.980Z,33.72
2018-07-30T18:48:28.985Z,33.59
2018-07-30T18:50:56.964Z,33.44
2018-07-30T18:53:24.959Z,33.26
2018-07-30T18:55:53.013Z,32.95
2018-07-30T18:58:21.040Z,32.75
2018-07-30T19:00:49.055Z,32.71
2018-07-30T19:03:17.066Z,32.52
2018-07-30T19:05:45.056Z,32.42
2018-07-30T19:08:13.076Z,32.39
2018-07-30T19:10:41.089Z,32.20
2018-07-30T19:13:09.077Z,32.12
2018-07-30T19:15:37.076Z,32.15
2018-07-30T19:18:05.149Z,32.14
2018-07-30T19:20:33.148Z,32.18
2018-07-30T19:23:01.160Z,32.20
2018-07-30T19:25:29.191Z,32.21
2018-07-30T19:27:57.202Z,31.74
2018-07-30T19:30:25.267Z,31.67
2018-07-30T19:32:53.325Z,31.66
2018-07-30T19:35:21.304Z,31.75
2018-07-30T19:37:49.296Z,31.77
2018-07-30T19:40:17.292Z,31.71
2018-07-30T19:42:45.281Z,31.51
2018-07-30T19:45:13.313Z,31.52
2018-07-30T19:47:41.313Z,31.40
2018-07-30T19:50:09.309Z,31.33
2018-07-30T19:52:37.355Z,31.29
2018-07-30T19:55:05.928Z,31.13
2018-07-30T19:57:34.104Z,30.99
2018-07-30T20:00:01.990Z,31.03
2018-07-30T20:02:30.041Z,31.07
2018-07-30T20:04:58.040Z,30.70
2018-07-30T20:07:26.061Z,30.45
2018-07-30T20:09:54.470Z,30.10
2018-07-30T20:12:22.472Z,29.84
2018-07-30T20:14:50.534Z,29.78
2018-07-30T20:17:18.576Z,29.70
2018-07-30T20:19:46.656Z,29.67
2018-07-30T20:22:14.669Z,29.62
2018-07-30T20:24:42.749Z,29.62
2018-07-30T20:27:10.752Z,29.58
2018-07-30T20:29:38.747Z,29.58
2018-07-30T20:32:06.948Z,29.47
2018-07-30T20:34:34.949Z,29.45
2018-07-30T20:37:02.963Z,29.36
2018-07-30T20:39:30.947Z,29.24
2018-07-30T20:41:58.981Z,29.09
2018-07-30T20:44:26.968Z,29.07
2018-07-30T20:46:55.022Z,29.15
2018-07-30T20:49:23.132Z,29.13
2018-07-30T20:51:51.209Z,29.21
2018-07-30T20:54:19.214Z,29.19
2018-07-30T20:56:47.239Z,29.23
2018-07-30T20:59:15.225Z,29.16
2018-07-30T21:01:43.227Z,29.05
2018-07-30T21:04:11.214Z,29.13
2018-07-30T21:06:39.209Z,29.13
2018-07-30T21:09:08.628Z,29.06
2018-07-30T21:11:36.722Z,29.07
2018-07-30T21:14:04.672Z,29.01
2018-07-30T21:16:32.828Z,29.08
2018-07-30T21:19:00.893Z,29.09
2018-07-30T21:21:28.918Z,29.10
2018-07-30T21:23:57.300Z,29.11
2018-07-30T21:26:25.304Z,29.09
2018-07-30T21:28:53.329Z,28.98
2018-07-30T21:31:21.380Z,28.90
2018-07-30T21:33:49.464Z,28.78
2018-07-30T21:36:17.660Z,28.79
2018-07-30T21:38:45.741Z,28.81
2018-07-30T21:41:13.728Z,28.77
2018-07-30T21:43:42.804Z,28.65
2018-07-30T21:46:10.836Z,28.66
2018-07-30T21:48:38.857Z,28.51
2018-07-30T21:51:07.121Z,28.48
2018-07-30T21:53:35.350Z,28.47
2018-07-30T21:56:03.457Z,28.43
2018-07-30T21:58:31.512Z,28.43
2018-07-30T22:00:59.583Z,28.38
2018-07-30T22:03:27.783Z,28.25
2018-07-30T22:05:55.849Z,28.13
2018-07-30T22:08:24.049Z,28.04
2018-07-30T22:10:52.137Z,27.99
2018-07-30T22:13:20.153Z,27.87
2018-07-30T22:15:48.364Z,27.89
2018-07-30T22:18:16.380Z,27.96
2018-07-30T22:20:44.390Z,27.98
2018-07-30T22:23:12.453Z,27.86
2018-07-30T22:25:40.802Z,27.88
2018-07-30T22:28:08.848Z,27.83
2018-07-30T22:30:37.015Z,27.69
2018-07-30T22:33:05.052Z,27.56
2018-07-30T22:35:33.121Z,27.41
2018-07-30T22:38:01.120Z,27.30
2018-07-30T22:40:29.260Z,27.14
2018-07-30T22:42:57.252Z,27.02
2018-07-30T22:45:25.292Z,26.94
2018-07-30T22:47:53.376Z,26.92
2018-07-30T22:50:21.364Z,27.03
2018-07-30T22:52:49.364Z,27.05
2018-07-30T22:55:17.409Z,26.97
2018-07-30T22:57:45.458Z,27.06
2018-07-30T23:00:13.600Z,26.98
2018-07-30T23:02:41.581Z,27.04
2018-07-30T23:05:09.604Z,27.03
2018-07-30T23:07:38.019Z,26.90
2018-07-30T23:10:06.137Z,26.94
2018-07-30T23:12:34.132Z,26.90
2018-07-30T23:15:02.230Z,26.84
2018-07-30T23:17:30.235Z,26.74
2018-07-30T23:19:58.360Z,26.75
2018-07-30T23:22:26.344Z,26.74
2018-07-30T23:24:54.381Z,26.69
2018-07-30T23:27:22.413Z,26.70
2018-07-30T23:29:50.408Z,26.70
2018-07-30T23:32:18.505Z,26.75
2018-07-30T23:34:46.569Z,26.72
2018-07-30T23:37:14.729Z,26.71
2018-07-30T23:39:42.656Z,26.68
2018-07-30T23:42:10.629Z,26.68
2018-07-30T23:44:38.629Z,26.65
2018-07-30T23:47:06.616Z,26.62
2018-07-30T23:49:34.716Z,26.47
2018-07-30T23:52:02.712Z,26.44
2018-07-30T23:54:31.756Z,26.45
2018-07-30T23:56:59.756Z,26.46
2018-07-30T23:59:27.796Z,26.37
